Terminal Aerodrome Forecast
Issued by NWS

Home | Current Version | Previous Version | Text Only | Print | Product List | Glossary On
Versions: 1 2 3 4 5 6 7 8 9 10 11 12 13 14 15 16 17
000
FTUS45 KREV 211157
TAFTVL
TAF
KTVL 211157Z 2112/2212 18012G20KT 3SM -SHSN BKN015 OVC025
      WS020/24035KT
     FM212100 20011G20KT 5SM -SHSN BKN020 OVC030
     FM220500 18010G18KT 1/2SM SN BKN008 OVC015 WS020/24045KT=

USA.gov is the U.S. government's official web portal to all federal, state and local government web resources and services.